KCKM/CKM METAR and TAF weather

Enter ICAO airport designator
Station Type Date Time Source
KCKM METAR 2018/01/19 23:15 UTC NOAA

KCKM 192315Z AUTO 16006KT 10SM OVC045 03/M01 A3021 RMK A01


Station Type Date Time Source
KCKM Decoded METAR 2018/01/19 23:15 UTC NOAA

Station name not available
Jan 19, 2018 - 06:15 PM EST / 2018.01.19 2315 UTC
Wind: from the SSE (160 degrees) at 7 MPH (6 KT):0
Visibility: 10 mile(s):0
Sky conditions: overcast
Temperature: 37 F (3 C)
Dew Point: 30 F (-1 C)
Relative Humidity: 74%
Pressure (altimeter): 30.21 in. Hg (1023 hPa)
ob: KCKM 192315Z AUTO 16006KT 10SM OVC045 03/M01 A3021 RMK A01
cycle: 23

Station Type Date Time Source
KCKM TAF UTC NOAA

Error!


Example: see airport list